sensor_id;sensor_type;location;lat;lon;timestamp;P1;durP1;ratioP1;P2;durP2;ratioP2
54145;SDS011;40052;49.422;7.738;2022-11-15T00:00:24;6.40;;;4.38;;
54145;SDS011;40052;49.422;7.738;2022-11-15T00:02:53;9.98;;;4.65;;
54145;SDS011;40052;49.422;7.738;2022-11-15T00:05:19;5.60;;;3.95;;
54145;SDS011;40052;49.422;7.738;2022-11-15T00:07:45;7.72;;;4.03;;
54145;SDS011;40052;49.422;7.738;2022-11-15T00:10:15;10.57;;;3.90;;
54145;SDS011;40052;49.422;7.738;2022-11-15T00:12:41;7.47;;;4.05;;
54145;SDS011;40052;49.422;7.738;2022-11-15T00:15:06;6.55;;;3.80;;
54145;SDS011;40052;49.422;7.738;2022-11-15T00:17:32;5.45;;;3.45;;
54145;SDS011;40052;49.422;7.738;2022-11-15T00:19:57;5.25;;;3.90;;
54145;SDS011;40052;49.422;7.738;2022-11-15T00:22:30;9.45;;;4.63;;
54145;SDS011;40052;49.422;7.738;2022-11-15T00:24:57;9.52;;;3.67;;
54145;SDS011;40052;49.422;7.738;2022-11-15T00:27:22;6.88;;;3.67;;
54145;SDS011;40052;49.422;7.738;2022-11-15T00:29:48;6.32;;;3.90;;
54145;SDS011;40052;49.422;7.738;2022-11-15T00:32:15;5.40;;;3.72;;
54145;SDS011;40052;49.422;7.738;2022-11-15T00:34:41;8.30;;;3.50;;
54145;SDS011;40052;49.422;7.738;2022-11-15T00:37:09;6.18;;;4.05;;
54145;SDS011;40052;49.422;7.738;2022-11-15T00:39:34;6.78;;;3.88;;
54145;SDS011;40052;49.422;7.738;2022-11-15T00:42:02;6.28;;;4.05;;
54145;SDS011;40052;49.422;7.738;2022-11-15T00:44:27;6.65;;;3.95;;
54145;SDS011;40052;49.422;7.738;2022-11-15T00:46:53;6.57;;;3.47;;
54145;SDS011;40052;49.422;7.738;2022-11-15T00:49:18;7.63;;;3.80;;
54145;SDS011;40052;49.422;7.738;2022-11-15T00:51:44;7.57;;;3.25;;
54145;SDS011;40052;49.422;7.738;2022-11-15T00:54:09;7.20;;;4.07;;
54145;SDS011;40052;49.422;7.738;2022-11-15T00:56:34;9.18;;;3.53;;
54145;SDS011;40052;49.422;7.738;2022-11-15T00:59:02;4.97;;;3.45;;
54145;SDS011;40052;49.422;7.738;2022-11-15T01:01:27;8.75;;;4.20;;
54145;SDS011;40052;49.422;7.738;2022-11-15T01:03:53;5.30;;;3.30;;
54145;SDS011;40052;49.422;7.738;2022-11-15T01:06:18;4.70;;;3.20;;
54145;SDS011;40052;49.422;7.738;2022-11-15T01:08:44;5.40;;;3.65;;
54145;SDS011;40052;49.422;7.738;2022-11-15T01:11:11;5.20;;;3.03;;
54145;SDS011;40052;49.422;7.738;2022-11-15T01:13:37;6.05;;;3.40;;
54145;SDS011;40052;49.422;7.738;2022-11-15T01:16:13;4.65;;;3.10;;
54145;SDS011;40052;49.422;7.738;2022-11-15T01:18:43;6.50;;;3.40;;
54145;SDS011;40052;49.422;7.738;2022-11-15T01:21:10;5.63;;;2.90;;
54145;SDS011;40052;49.422;7.738;2022-11-15T01:23:40;3.85;;;2.90;;
54145;SDS011;40052;49.422;7.738;2022-11-15T01:26:07;7.07;;;3.40;;
54145;SDS011;40052;49.422;7.738;2022-11-15T01:28:40;6.22;;;3.75;;
54145;SDS011;40052;49.422;7.738;2022-11-15T01:31:09;6.50;;;3.70;;
54145;SDS011;40052;49.422;7.738;2022-11-15T01:33:38;4.10;;;2.90;;
54145;SDS011;40052;49.422;7.738;2022-11-15T01:36:04;4.00;;;2.42;;
54145;SDS011;40052;49.422;7.738;2022-11-15T01:38:31;3.80;;;2.55;;
54145;SDS011;40052;49.422;7.738;2022-11-15T01:40:56;6.38;;;3.67;;
54145;SDS011;40052;49.422;7.738;2022-11-15T01:43:26;8.23;;;3.15;;
54145;SDS011;40052;49.422;7.738;2022-11-15T01:45:58;4.15;;;2.88;;
54145;SDS011;40052;49.422;7.738;2022-11-15T01:48:32;3.75;;;3.00;;
54145;SDS011;40052;49.422;7.738;2022-11-15T01:51:02;4.15;;;2.65;;
54145;SDS011;40052;49.422;7.738;2022-11-15T01:53:33;5.82;;;3.25;;
54145;SDS011;40052;49.422;7.738;2022-11-15T01:56:05;3.42;;;2.50;;
54145;SDS011;40052;49.422;7.738;2022-11-15T01:58:35;4.50;;;2.83;;
54145;SDS011;40052;49.422;7.738;2022-11-15T02:01:03;3.97;;;2.65;;
54145;SDS011;40052;49.422;7.738;2022-11-15T02:03:41;5.60;;;2.80;;
54145;SDS011;40052;49.422;7.738;2022-11-15T02:06:19;3.83;;;3.00;;
54145;SDS011;40052;49.422;7.738;2022-11-15T02:08:46;4.40;;;2.85;;
54145;SDS011;40052;49.422;7.738;2022-11-15T02:11:14;5.35;;;2.80;;
54145;SDS011;40052;49.422;7.738;2022-11-15T02:13:42;4.13;;;2.75;;
54145;SDS011;40052;49.422;7.738;2022-11-15T02:30:00;4.75;;;3.25;;
54145;SDS011;40052;49.422;7.738;2022-11-15T02:33:00;4.18;;;2.78;;
54145;SDS011;40052;49.422;7.738;2022-11-15T02:38:25;5.05;;;2.92;;
54145;SDS011;40052;49.422;7.738;2022-11-15T02:41:01;4.40;;;3.03;;
54145;SDS011;40052;49.422;7.738;2022-11-15T02:43:35;5.20;;;3.38;;
54145;SDS011;40052;49.422;7.738;2022-11-15T02:46:28;5.65;;;3.30;;
54145;SDS011;40052;49.422;7.738;2022-11-15T02:49:18;4.95;;;3.22;;
54145;SDS011;40052;49.422;7.738;2022-11-15T02:51:47;4.13;;;2.90;;
54145;SDS011;40052;49.422;7.738;2022-11-15T02:54:17;4.13;;;2.80;;
54145;SDS011;40052;49.422;7.738;2022-11-15T02:56:47;3.63;;;2.70;;
54145;SDS011;40052;49.422;7.738;2022-11-15T03:15:07;5.75;;;3.40;;
54145;SDS011;40052;49.422;7.738;2022-11-15T03:18:00;4.82;;;2.85;;
54145;SDS011;40052;49.422;7.738;2022-11-15T03:20:33;5.15;;;3.17;;
54145;SDS011;40052;49.422;7.738;2022-11-15T03:23:03;6.53;;;3.10;;
54145;SDS011;40052;49.422;7.738;2022-11-15T03:25:32;4.13;;;2.97;;
54145;SDS011;40052;49.422;7.738;2022-11-15T03:28:00;5.22;;;3.13;;
54145;SDS011;40052;49.422;7.738;2022-11-15T03:30:30;4.15;;;3.03;;
54145;SDS011;40052;49.422;7.738;2022-11-15T03:32:59;4.38;;;3.60;;
54145;SDS011;40052;49.422;7.738;2022-11-15T03:35:31;5.47;;;3.00;;
54145;SDS011;40052;49.422;7.738;2022-11-15T03:40:47;5.05;;;3.10;;
54145;SDS011;40052;49.422;7.738;2022-11-15T03:43:30;4.53;;;3.22;;
54145;SDS011;40052;49.422;7.738;2022-11-15T03:46:02;4.63;;;2.83;;
54145;SDS011;40052;49.422;7.738;2022-11-15T03:48:33;4.95;;;3.25;;
54145;SDS011;40052;49.422;7.738;2022-11-15T03:51:05;5.63;;;3.10;;
54145;SDS011;40052;49.422;7.738;2022-11-15T03:53:30;5.55;;;2.83;;
54145;SDS011;40052;49.422;7.738;2022-11-15T03:55:59;4.28;;;3.25;;
54145;SDS011;40052;49.422;7.738;2022-11-15T03:58:26;4.90;;;2.90;;
54145;SDS011;40052;49.422;7.738;2022-11-15T04:00:54;5.78;;;3.58;;
54145;SDS011;40052;49.422;7.738;2022-11-15T04:03:19;4.70;;;3.35;;
54145;SDS011;40052;49.422;7.738;2022-11-15T04:05:45;3.75;;;2.70;;
54145;SDS011;40052;49.422;7.738;2022-11-15T04:08:10;5.10;;;3.15;;
54145;SDS011;40052;49.422;7.738;2022-11-15T04:10:37;5.05;;;2.78;;
54145;SDS011;40052;49.422;7.738;2022-11-15T04:13:06;4.35;;;2.90;;
54145;SDS011;40052;49.422;7.738;2022-11-15T04:15:32;4.30;;;3.22;;
54145;SDS011;40052;49.422;7.738;2022-11-15T04:17:58;3.55;;;3.17;;
54145;SDS011;40052;49.422;7.738;2022-11-15T04:20:26;6.18;;;2.83;;
54145;SDS011;40052;49.422;7.738;2022-11-15T04:23:16;4.30;;;3.30;;
54145;SDS011;40052;49.422;7.738;2022-11-15T04:26:03;6.15;;;3.17;;
54145;SDS011;40052;49.422;7.738;2022-11-15T04:28:33;2.95;;;2.42;;
54145;SDS011;40052;49.422;7.738;2022-11-15T04:30:58;5.88;;;3.00;;
54145;SDS011;40052;49.422;7.738;2022-11-15T04:33:24;4.38;;;2.60;;
54145;SDS011;40052;49.422;7.738;2022-11-15T04:35:50;5.28;;;2.88;;
54145;SDS011;40052;49.422;7.738;2022-11-15T04:38:35;5.03;;;2.92;;
54145;SDS011;40052;49.422;7.738;2022-11-15T04:41:02;4.88;;;2.78;;
54145;SDS011;40052;49.422;7.738;2022-11-15T04:43:30;3.97;;;2.67;;
54145;SDS011;40052;49.422;7.738;2022-11-15T04:45:57;4.72;;;2.58;;
54145;SDS011;40052;49.422;7.738;2022-11-15T04:48:26;4.07;;;2.63;;
54145;SDS011;40052;49.422;7.738;2022-11-15T04:50:51;3.53;;;2.53;;
54145;SDS011;40052;49.422;7.738;2022-11-15T04:53:19;4.47;;;3.10;;
54145;SDS011;40052;49.422;7.738;2022-11-15T04:55:45;3.60;;;2.33;;
54145;SDS011;40052;49.422;7.738;2022-11-15T04:58:11;4.35;;;2.75;;
54145;SDS011;40052;49.422;7.738;2022-11-15T05:00:36;3.55;;;2.70;;
54145;SDS011;40052;49.422;7.738;2022-11-15T05:03:02;2.53;;;2.28;;
54145;SDS011;40052;49.422;7.738;2022-11-15T05:05:46;3.63;;;2.67;;
54145;SDS011;40052;49.422;7.738;2022-11-15T05:08:11;4.93;;;2.60;;
54145;SDS011;40052;49.422;7.738;2022-11-15T05:10:36;3.75;;;2.40;;
54145;SDS011;40052;49.422;7.738;2022-11-15T05:13:02;5.15;;;2.28;;
54145;SDS011;40052;49.422;7.738;2022-11-15T05:15:29;3.25;;;2.08;;
54145;SDS011;40052;49.422;7.738;2022-11-15T05:17:58;6.07;;;2.55;;
54145;SDS011;40052;49.422;7.738;2022-11-15T05:20:26;3.42;;;2.20;;
54145;SDS011;40052;49.422;7.738;2022-11-15T05:22:54;2.45;;;1.90;;
54145;SDS011;40052;49.422;7.738;2022-11-15T05:25:21;2.70;;;2.05;;
54145;SDS011;40052;49.422;7.738;2022-11-15T05:27:47;3.10;;;2.00;;
54145;SDS011;40052;49.422;7.738;2022-11-15T05:30:12;2.30;;;2.00;;
54145;SDS011;40052;49.422;7.738;2022-11-15T05:32:37;4.60;;;1.92;;
54145;SDS011;40052;49.422;7.738;2022-11-15T05:35:03;3.08;;;2.33;;
54145;SDS011;40052;49.422;7.738;2022-11-15T05:37:31;3.75;;;2.13;;
54145;SDS011;40052;49.422;7.738;2022-11-15T05:39:57;3.20;;;2.60;;
54145;SDS011;40052;49.422;7.738;2022-11-15T05:42:23;3.78;;;1.98;;
54145;SDS011;40052;49.422;7.738;2022-11-15T05:44:51;2.80;;;1.92;;
54145;SDS011;40052;49.422;7.738;2022-11-15T05:47:18;3.10;;;2.08;;
54145;SDS011;40052;49.422;7.738;2022-11-15T05:49:48;2.70;;;1.90;;
54145;SDS011;40052;49.422;7.738;2022-11-15T05:52:20;4.10;;;2.10;;
54145;SDS011;40052;49.422;7.738;2022-11-15T05:54:49;3.45;;;2.03;;
54145;SDS011;40052;49.422;7.738;2022-11-15T05:57:15;2.63;;;2.10;;
54145;SDS011;40052;49.422;7.738;2022-11-15T05:59:44;4.07;;;2.00;;
54145;SDS011;40052;49.422;7.738;2022-11-15T06:02:10;2.65;;;2.08;;
54145;SDS011;40052;49.422;7.738;2022-11-15T06:04:35;2.53;;;2.10;;
54145;SDS011;40052;49.422;7.738;2022-11-15T06:07:01;2.70;;;2.30;;
54145;SDS011;40052;49.422;7.738;2022-11-15T06:09:29;2.78;;;2.03;;
54145;SDS011;40052;49.422;7.738;2022-11-15T06:11:54;2.78;;;1.90;;
54145;SDS011;40052;49.422;7.738;2022-11-15T06:14:19;2.42;;;2.00;;
54145;SDS011;40052;49.422;7.738;2022-11-15T06:16:47;4.07;;;2.03;;
54145;SDS011;40052;49.422;7.738;2022-11-15T06:19:12;3.00;;;2.05;;
54145;SDS011;40052;49.422;7.738;2022-11-15T06:21:38;3.45;;;1.95;;
54145;SDS011;40052;49.422;7.738;2022-11-15T06:24:06;2.83;;;1.90;;
54145;SDS011;40052;49.422;7.738;2022-11-15T06:26:32;2.85;;;2.35;;
54145;SDS011;40052;49.422;7.738;2022-11-15T06:29:00;3.17;;;2.10;;
54145;SDS011;40052;49.422;7.738;2022-11-15T06:31:29;3.60;;;2.25;;
54145;SDS011;40052;49.422;7.738;2022-11-15T06:34:00;2.60;;;2.10;;
54145;SDS011;40052;49.422;7.738;2022-11-15T06:36:28;3.85;;;2.70;;
54145;SDS011;40052;49.422;7.738;2022-11-15T06:38:53;4.75;;;2.30;;
54145;SDS011;40052;49.422;7.738;2022-11-15T06:41:21;3.05;;;2.13;;
54145;SDS011;40052;49.422;7.738;2022-11-15T06:43:46;6.00;;;2.70;;
54145;SDS011;40052;49.422;7.738;2022-11-15T06:46:14;3.85;;;2.38;;
54145;SDS011;40052;49.422;7.738;2022-11-15T06:48:44;3.75;;;2.28;;
54145;SDS011;40052;49.422;7.738;2022-11-15T06:51:09;5.18;;;2.30;;
54145;SDS011;40052;49.422;7.738;2022-11-15T06:53:37;4.85;;;2.33;;
54145;SDS011;40052;49.422;7.738;2022-11-15T06:56:08;3.20;;;2.15;;
54145;SDS011;40052;49.422;7.738;2022-11-15T06:58:36;4.90;;;2.90;;
54145;SDS011;40052;49.422;7.738;2022-11-15T07:01:02;3.25;;;2.33;;
54145;SDS011;40052;49.422;7.738;2022-11-15T07:03:34;3.42;;;2.47;;
54145;SDS011;40052;49.422;7.738;2022-11-15T07:06:01;4.90;;;2.78;;
54145;SDS011;40052;49.422;7.738;2022-11-15T07:08:27;4.07;;;2.47;;
54145;SDS011;40052;49.422;7.738;2022-11-15T07:10:54;9.98;;;4.88;;
54145;SDS011;40052;49.422;7.738;2022-11-15T07:13:28;6.03;;;3.30;;
54145;SDS011;40052;49.422;7.738;2022-11-15T07:15:55;4.15;;;2.70;;
54145;SDS011;40052;49.422;7.738;2022-11-15T07:18:22;6.25;;;2.70;;
54145;SDS011;40052;49.422;7.738;2022-11-15T07:20:48;6.00;;;3.45;;
54145;SDS011;40052;49.422;7.738;2022-11-15T07:23:13;12.75;;;5.65;;
54145;SDS011;40052;49.422;7.738;2022-11-15T07:25:38;12.02;;;5.93;;
54145;SDS011;40052;49.422;7.738;2022-11-15T07:28:04;9.48;;;4.82;;
54145;SDS011;40052;49.422;7.738;2022-11-15T07:30:32;9.32;;;5.15;;
54145;SDS011;40052;49.422;7.738;2022-11-15T07:32:58;8.27;;;4.45;;
54145;SDS011;40052;49.422;7.738;2022-11-15T07:35:25;5.80;;;3.70;;
54145;SDS011;40052;49.422;7.738;2022-11-15T07:38:01;5.88;;;3.35;;
54145;SDS011;40052;49.422;7.738;2022-11-15T07:40:30;6.72;;;3.50;;
54145;SDS011;40052;49.422;7.738;2022-11-15T07:43:03;7.95;;;3.88;;
54145;SDS011;40052;49.422;7.738;2022-11-15T07:45:33;6.33;;;3.90;;
54145;SDS011;40052;49.422;7.738;2022-11-15T07:48:01;6.15;;;3.45;;
54145;SDS011;40052;49.422;7.738;2022-11-15T07:50:29;5.40;;;2.95;;
54145;SDS011;40052;49.422;7.738;2022-11-15T07:52:56;7.55;;;3.85;;
54145;SDS011;40052;49.422;7.738;2022-11-15T07:55:23;9.23;;;4.30;;
54145;SDS011;40052;49.422;7.738;2022-11-15T07:57:50;9.05;;;5.18;;
54145;SDS011;40052;49.422;7.738;2022-11-15T08:00:15;7.60;;;4.20;;
54145;SDS011;40052;49.422;7.738;2022-11-15T08:02:44;4.45;;;2.70;;
54145;SDS011;40052;49.422;7.738;2022-11-15T08:05:09;5.38;;;2.83;;
54145;SDS011;40052;49.422;7.738;2022-11-15T08:07:37;3.42;;;2.38;;
54145;SDS011;40052;49.422;7.738;2022-11-15T08:10:03;4.90;;;2.92;;
54145;SDS011;40052;49.422;7.738;2022-11-15T08:12:35;3.45;;;2.78;;
54145;SDS011;40052;49.422;7.738;2022-11-15T08:15:00;3.83;;;2.72;;
54145;SDS011;40052;49.422;7.738;2022-11-15T08:17:26;4.63;;;2.33;;
54145;SDS011;40052;49.422;7.738;2022-11-15T08:19:51;3.63;;;2.65;;
54145;SDS011;40052;49.422;7.738;2022-11-15T08:22:17;5.13;;;2.65;;
54145;SDS011;40052;49.422;7.738;2022-11-15T08:24:43;3.85;;;2.55;;
54145;SDS011;40052;49.422;7.738;2022-11-15T08:27:11;3.70;;;2.30;;
54145;SDS011;40052;49.422;7.738;2022-11-15T08:29:43;3.67;;;2.20;;
54145;SDS011;40052;49.422;7.738;2022-11-15T08:32:11;3.42;;;2.47;;
54145;SDS011;40052;49.422;7.738;2022-11-15T08:34:37;3.13;;;2.30;;
54145;SDS011;40052;49.422;7.738;2022-11-15T08:37:05;3.72;;;2.08;;
54145;SDS011;40052;49.422;7.738;2022-11-15T08:39:33;3.28;;;2.45;;
54145;SDS011;40052;49.422;7.738;2022-11-15T08:42:00;2.72;;;2.25;;
54145;SDS011;40052;49.422;7.738;2022-11-15T08:44:26;4.07;;;2.00;;
54145;SDS011;40052;49.422;7.738;2022-11-15T08:46:54;3.70;;;1.90;;
54145;SDS011;40052;49.422;7.738;2022-11-15T08:49:22;2.58;;;2.30;;
54145;SDS011;40052;49.422;7.738;2022-11-15T08:51:47;3.22;;;1.90;;
54145;SDS011;40052;49.422;7.738;2022-11-15T08:54:15;3.03;;;2.33;;
54145;SDS011;40052;49.422;7.738;2022-11-15T08:56:43;2.20;;;1.85;;
54145;SDS011;40052;49.422;7.738;2022-11-15T08:59:08;4.30;;;2.55;;
54145;SDS011;40052;49.422;7.738;2022-11-15T09:01:34;3.30;;;2.20;;
54145;SDS011;40052;49.422;7.738;2022-11-15T09:04:01;3.80;;;2.25;;
54145;SDS011;40052;49.422;7.738;2022-11-15T09:06:28;2.75;;;2.05;;
54145;SDS011;40052;49.422;7.738;2022-11-15T09:08:54;2.92;;;1.70;;
54145;SDS011;40052;49.422;7.738;2022-11-15T09:11:19;3.25;;;2.33;;
54145;SDS011;40052;49.422;7.738;2022-11-15T09:13:46;4.22;;;2.20;;
54145;SDS011;40052;49.422;7.738;2022-11-15T09:16:14;2.45;;;2.20;;
54145;SDS011;40052;49.422;7.738;2022-11-15T09:18:40;2.72;;;2.00;;
54145;SDS011;40052;49.422;7.738;2022-11-15T09:21:08;3.22;;;1.85;;
54145;SDS011;40052;49.422;7.738;2022-11-15T09:23:34;3.03;;;1.85;;
54145;SDS011;40052;49.422;7.738;2022-11-15T09:26:00;2.47;;;1.88;;
54145;SDS011;40052;49.422;7.738;2022-11-15T09:28:27;3.70;;;1.70;;
54145;SDS011;40052;49.422;7.738;2022-11-15T09:30:58;2.63;;;2.00;;
54145;SDS011;40052;49.422;7.738;2022-11-15T09:33:27;5.57;;;2.35;;
54145;SDS011;40052;49.422;7.738;2022-11-15T09:35:53;2.30;;;1.60;;
54145;SDS011;40052;49.422;7.738;2022-11-15T09:38:24;2.80;;;1.95;;
54145;SDS011;40052;49.422;7.738;2022-11-15T09:40:50;3.97;;;1.80;;
54145;SDS011;40052;49.422;7.738;2022-11-15T09:51:18;3.15;;;2.15;;
54145;SDS011;40052;49.422;7.738;2022-11-15T09:54:16;3.28;;;2.10;;
54145;SDS011;40052;49.422;7.738;2022-11-15T09:56:55;3.22;;;1.90;;
54145;SDS011;40052;49.422;7.738;2022-11-15T09:59:50;2.55;;;1.92;;
54145;SDS011;40052;49.422;7.738;2022-11-15T10:05:04;2.20;;;1.80;;
54145;SDS011;40052;49.422;7.738;2022-11-15T10:12:48;2.50;;;1.88;;
54145;SDS011;40052;49.422;7.738;2022-11-15T10:15:17;2.40;;;1.88;;
54145;SDS011;40052;49.422;7.738;2022-11-15T10:20:23;1.83;;;1.45;;
54145;SDS011;40052;49.422;7.738;2022-11-15T10:22:52;2.72;;;1.30;;
54145;SDS011;40052;49.422;7.738;2022-11-15T10:25:33;2.58;;;1.20;;
54145;SDS011;40052;49.422;7.738;2022-11-15T10:28:16;3.38;;;1.58;;
54145;SDS011;40052;49.422;7.738;2022-11-15T10:30:58;2.25;;;1.10;;
54145;SDS011;40052;49.422;7.738;2022-11-15T10:38:33;2.50;;;1.23;;
54145;SDS011;40052;49.422;7.738;2022-11-15T10:41:06;2.88;;;1.30;;
54145;SDS011;40052;49.422;7.738;2022-11-15T10:43:32;1.75;;;1.30;;
54145;SDS011;40052;49.422;7.738;2022-11-15T10:45:57;3.70;;;1.20;;
54145;SDS011;40052;49.422;7.738;2022-11-15T10:48:44;1.25;;;1.05;;
54145;SDS011;40052;49.422;7.738;2022-11-15T10:51:18;4.22;;;1.38;;
54145;SDS011;40052;49.422;7.738;2022-11-15T10:53:49;1.70;;;1.10;;
54145;SDS011;40052;49.422;7.738;2022-11-15T10:56:20;2.95;;;1.50;;
54145;SDS011;40052;49.422;7.738;2022-11-15T10:58:53;4.80;;;2.25;;
54145;SDS011;40052;49.422;7.738;2022-11-15T11:01:25;2.40;;;1.30;;
54145;SDS011;40052;49.422;7.738;2022-11-15T11:04:02;2.97;;;1.75;;
54145;SDS011;40052;49.422;7.738;2022-11-15T11:06:29;3.70;;;1.67;;
54145;SDS011;40052;49.422;7.738;2022-11-15T11:08:55;1.85;;;1.15;;
54145;SDS011;40052;49.422;7.738;2022-11-15T11:11:26;1.77;;;1.20;;
54145;SDS011;40052;49.422;7.738;2022-11-15T11:14:17;2.78;;;1.48;;
54145;SDS011;40052;49.422;7.738;2022-11-15T11:37:02;1.55;;;1.45;;
54145;SDS011;40052;49.422;7.738;2022-11-15T11:47:58;0.95;;;0.82;;
54145;SDS011;40052;49.422;7.738;2022-11-15T11:50:38;1.33;;;0.90;;
54145;SDS011;40052;49.422;7.738;2022-11-15T11:53:09;2.47;;;1.55;;
54145;SDS011;40052;49.422;7.738;2022-11-15T11:55:45;1.25;;;1.00;;
54145;SDS011;40052;49.422;7.738;2022-11-15T12:03:57;1.17;;;0.85;;
54145;SDS011;40052;49.422;7.738;2022-11-15T12:09:36;2.67;;;1.00;;
54145;SDS011;40052;49.422;7.738;2022-11-15T12:12:09;1.73;;;0.90;;
54145;SDS011;40052;49.422;7.738;2022-11-15T12:17:28;1.58;;;1.10;;
54145;SDS011;40052;49.422;7.738;2022-11-15T12:20:32;1.58;;;1.08;;
54145;SDS011;40052;49.422;7.738;2022-11-15T12:22:59;1.13;;;0.93;;
54145;SDS011;40052;49.422;7.738;2022-11-15T12:25:31;1.17;;;1.00;;
54145;SDS011;40052;49.422;7.738;2022-11-15T12:28:15;0.80;;;0.77;;
54145;SDS011;40052;49.422;7.738;2022-11-15T12:30:50;1.23;;;0.88;;
54145;SDS011;40052;49.422;7.738;2022-11-15T12:33:33;2.10;;;0.88;;
54145;SDS011;40052;49.422;7.738;2022-11-15T12:36:50;1.33;;;1.00;;
54145;SDS011;40052;49.422;7.738;2022-11-15T12:39:09;1.52;;;0.93;;
54145;SDS011;40052;49.422;7.738;2022-11-15T12:41:36;1.35;;;0.88;;
54145;SDS011;40052;49.422;7.738;2022-11-15T12:44:04;1.23;;;1.00;;
54145;SDS011;40052;49.422;7.738;2022-11-15T12:49:10;1.17;;;0.95;;
54145;SDS011;40052;49.422;7.738;2022-11-15T13:02:42;1.30;;;1.00;;
54145;SDS011;40052;49.422;7.738;2022-11-15T13:17:54;1.30;;;0.95;;
54145;SDS011;40052;49.422;7.738;2022-11-15T13:20:31;1.52;;;1.00;;
54145;SDS011;40052;49.422;7.738;2022-11-15T13:30:49;1.15;;;0.70;;
54145;SDS011;40052;49.422;7.738;2022-11-15T13:36:02;1.85;;;0.95;;
54145;SDS011;40052;49.422;7.738;2022-11-15T13:38:32;1.13;;;1.00;;
54145;SDS011;40052;49.422;7.738;2022-11-15T13:40:58;1.23;;;1.00;;
54145;SDS011;40052;49.422;7.738;2022-11-15T13:48:30;1.10;;;0.80;;
54145;SDS011;40052;49.422;7.738;2022-11-15T13:50:55;1.83;;;0.80;;
54145;SDS011;40052;49.422;7.738;2022-11-15T13:53:22;0.95;;;0.77;;
54145;SDS011;40052;49.422;7.738;2022-11-15T13:55:48;2.63;;;0.80;;
54145;SDS011;40052;49.422;7.738;2022-11-15T13:58:16;1.05;;;0.95;;
54145;SDS011;40052;49.422;7.738;2022-11-15T14:00:42;1.13;;;1.10;;
54145;SDS011;40052;49.422;7.738;2022-11-15T14:05:45;1.38;;;1.02;;
54145;SDS011;40052;49.422;7.738;2022-11-15T14:08:37;1.45;;;1.10;;
54145;SDS011;40052;49.422;7.738;2022-11-15T14:13:58;1.88;;;0.80;;
54145;SDS011;40052;49.422;7.738;2022-11-15T14:16:32;1.67;;;0.95;;
54145;SDS011;40052;49.422;7.738;2022-11-15T14:19:02;0.73;;;0.70;;
54145;SDS011;40052;49.422;7.738;2022-11-15T14:21:29;2.08;;;0.90;;
54145;SDS011;40052;49.422;7.738;2022-11-15T14:24:16;0.93;;;0.90;;
54145;SDS011;40052;49.422;7.738;2022-11-15T14:26:43;0.90;;;0.80;;
54145;SDS011;40052;49.422;7.738;2022-11-15T14:29:28;1.02;;;0.77;;
54145;SDS011;40052;49.422;7.738;2022-11-15T14:32:56;0.77;;;0.75;;
54145;SDS011;40052;49.422;7.738;2022-11-15T14:35:03;0.80;;;0.80;;
54145;SDS011;40052;49.422;7.738;2022-11-15T14:37:32;1.58;;;1.05;;
54145;SDS011;40052;49.422;7.738;2022-11-15T14:40:02;0.80;;;0.80;;
54145;SDS011;40052;49.422;7.738;2022-11-15T14:42:32;2.50;;;1.00;;
54145;SDS011;40052;49.422;7.738;2022-11-15T14:44:58;1.48;;;0.95;;
54145;SDS011;40052;49.422;7.738;2022-11-15T14:47:25;1.50;;;0.95;;
54145;SDS011;40052;49.422;7.738;2022-11-15T14:49:53;0.93;;;0.90;;
54145;SDS011;40052;49.422;7.738;2022-11-15T14:52:28;2.65;;;1.10;;
54145;SDS011;40052;49.422;7.738;2022-11-15T14:54:58;0.80;;;0.80;;
54145;SDS011;40052;49.422;7.738;2022-11-15T14:57:24;1.17;;;0.98;;
54145;SDS011;40052;49.422;7.738;2022-11-15T14:59:50;1.23;;;0.95;;
54145;SDS011;40052;49.422;7.738;2022-11-15T15:02:17;1.83;;;0.90;;
54145;SDS011;40052;49.422;7.738;2022-11-15T15:04:44;1.38;;;1.00;;
54145;SDS011;40052;49.422;7.738;2022-11-15T15:07:10;1.67;;;0.80;;
54145;SDS011;40052;49.422;7.738;2022-11-15T15:09:36;1.83;;;1.42;;
54145;SDS011;40052;49.422;7.738;2022-11-15T15:12:01;1.13;;;0.90;;
54145;SDS011;40052;49.422;7.738;2022-11-15T15:14:27;1.60;;;1.17;;
54145;SDS011;40052;49.422;7.738;2022-11-15T15:16:55;1.10;;;1.00;;
54145;SDS011;40052;49.422;7.738;2022-11-15T15:19:22;0.90;;;0.80;;
54145;SDS011;40052;49.422;7.738;2022-11-15T15:21:47;1.05;;;0.75;;
54145;SDS011;40052;49.422;7.738;2022-11-15T15:24:13;1.10;;;0.95;;
54145;SDS011;40052;49.422;7.738;2022-11-15T15:26:41;1.55;;;1.13;;
54145;SDS011;40052;49.422;7.738;2022-11-15T15:29:08;2.60;;;1.10;;
54145;SDS011;40052;49.422;7.738;2022-11-15T15:31:36;5.65;;;3.55;;
54145;SDS011;40052;49.422;7.738;2022-11-15T15:34:01;5.72;;;2.08;;
54145;SDS011;40052;49.422;7.738;2022-11-15T15:36:26;18.98;;;8.90;;
54145;SDS011;40052;49.422;7.738;2022-11-15T15:38:52;12.63;;;5.78;;
54145;SDS011;40052;49.422;7.738;2022-11-15T15:41:17;5.97;;;2.78;;
54145;SDS011;40052;49.422;7.738;2022-11-15T15:43:43;19.92;;;7.55;;
54145;SDS011;40052;49.422;7.738;2022-11-15T15:46:10;7.30;;;2.30;;
54145;SDS011;40052;49.422;7.738;2022-11-15T15:48:39;16.92;;;7.00;;
54145;SDS011;40052;49.422;7.738;2022-11-15T15:51:07;10.10;;;4.25;;
54145;SDS011;40052;49.422;7.738;2022-11-15T15:53:33;1.00;;;0.70;;
54145;SDS011;40052;49.422;7.738;2022-11-15T15:55:59;2.92;;;1.65;;
54145;SDS011;40052;49.422;7.738;2022-11-15T15:58:24;4.90;;;1.85;;
54145;SDS011;40052;49.422;7.738;2022-11-15T16:00:50;2.10;;;1.25;;
54145;SDS011;40052;49.422;7.738;2022-11-15T16:03:15;9.60;;;4.15;;
54145;SDS011;40052;49.422;7.738;2022-11-15T16:05:41;1.98;;;1.40;;
54145;SDS011;40052;49.422;7.738;2022-11-15T16:08:10;1.02;;;0.73;;
54145;SDS011;40052;49.422;7.738;2022-11-15T16:10:45;1.17;;;1.08;;
54145;SDS011;40052;49.422;7.738;2022-11-15T16:13:11;1.40;;;1.00;;
54145;SDS011;40052;49.422;7.738;2022-11-15T16:15:41;2.03;;;1.10;;
54145;SDS011;40052;49.422;7.738;2022-11-15T16:18:14;2.42;;;0.95;;
54145;SDS011;40052;49.422;7.738;2022-11-15T16:20:42;1.45;;;0.90;;
54145;SDS011;40052;49.422;7.738;2022-11-15T16:23:10;2.05;;;0.90;;
54145;SDS011;40052;49.422;7.738;2022-11-15T16:30:49;1.73;;;0.93;;
54145;SDS011;40052;49.422;7.738;2022-11-15T16:33:28;3.03;;;1.00;;
54145;SDS011;40052;49.422;7.738;2022-11-15T16:35:53;0.73;;;0.70;;
54145;SDS011;40052;49.422;7.738;2022-11-15T16:38:19;0.85;;;0.75;;
54145;SDS011;40052;49.422;7.738;2022-11-15T16:40:44;1.63;;;1.10;;
54145;SDS011;40052;49.422;7.738;2022-11-15T16:43:10;1.55;;;1.00;;
54145;SDS011;40052;49.422;7.738;2022-11-15T16:45:35;2.03;;;1.15;;
54145;SDS011;40052;49.422;7.738;2022-11-15T16:48:01;1.92;;;1.27;;
54145;SDS011;40052;49.422;7.738;2022-11-15T16:50:28;1.05;;;0.95;;
54145;SDS011;40052;49.422;7.738;2022-11-15T16:52:59;1.88;;;1.00;;
54145;SDS011;40052;49.422;7.738;2022-11-15T16:55:26;1.13;;;0.80;;
54145;SDS011;40052;49.422;7.738;2022-11-15T16:57:53;6.30;;;3.17;;
54145;SDS011;40052;49.422;7.738;2022-11-15T17:00:22;14.55;;;7.05;;
54145;SDS011;40052;49.422;7.738;2022-11-15T17:02:49;10.07;;;5.00;;
54145;SDS011;40052;49.422;7.738;2022-11-15T17:05:16;48.30;;;18.83;;
54145;SDS011;40052;49.422;7.738;2022-11-15T17:07:42;80.43;;;28.80;;
54145;SDS011;40052;49.422;7.738;2022-11-15T17:10:14;15.85;;;6.82;;
54145;SDS011;40052;49.422;7.738;2022-11-15T17:12:40;9.00;;;3.63;;
54145;SDS011;40052;49.422;7.738;2022-11-15T17:15:11;3.85;;;1.98;;
54145;SDS011;40052;49.422;7.738;2022-11-15T17:17:37;9.20;;;3.72;;
54145;SDS011;40052;49.422;7.738;2022-11-15T17:20:03;9.30;;;4.45;;
54145;SDS011;40052;49.422;7.738;2022-11-15T17:22:33;24.33;;;8.32;;
54145;SDS011;40052;49.422;7.738;2022-11-15T17:25:00;6.88;;;2.03;;
54145;SDS011;40052;49.422;7.738;2022-11-15T17:27:25;6.55;;;2.45;;
54145;SDS011;40052;49.422;7.738;2022-11-15T17:29:50;8.98;;;3.78;;
54145;SDS011;40052;49.422;7.738;2022-11-15T17:32:18;17.05;;;6.53;;